createdAt,value
2019-04-21T00:00:45.568Z,15.83
2019-04-21T00:01:30.669Z,14.87
2019-04-21T00:02:24.196Z,14.80
2019-04-21T00:03:10.024Z,15.77
2019-04-21T00:04:02.500Z,14.67
2019-04-21T00:04:55.714Z,17.27
2019-04-21T00:05:53.301Z,17.73
2019-04-21T00:06:41.101Z,16.30
2019-04-21T00:07:29.690Z,16.07
2019-04-21T00:08:27.803Z,14.37
2019-04-21T00:09:53.727Z,15.30
2019-04-21T00:10:44.542Z,16.67
2019-04-21T00:11:33.014Z,16.47
2019-04-21T00:12:15.321Z,15.97
2019-04-21T00:12:58.932Z,14.80
2019-04-21T00:13:46.979Z,17.30
2019-04-21T00:14:30.335Z,17.23
2019-04-21T00:15:18.087Z,17.93
2019-04-21T00:16:02.024Z,17.63
2019-04-21T00:16:55.495Z,19.47
2019-04-21T00:17:34.729Z,15.67
2019-04-21T00:19:08.396Z,17.20
2019-04-21T00:19:55.410Z,19.67
2019-04-21T00:20:49.531Z,15.93
2019-04-21T00:21:39.625Z,15.63
2019-04-21T00:22:33.145Z,16.77
2019-04-21T00:23:22.566Z,17.60
2019-04-21T00:24:24.264Z,15.73
2019-04-21T00:25:14.047Z,16.60
2019-04-21T00:25:59.133Z,15.97
2019-04-21T00:26:53.172Z,17.97
2019-04-21T00:27:38.607Z,16.00
2019-04-21T00:28:39.324Z,16.87
2019-04-21T00:29:16.612Z,15.37
2019-04-21T00:30:03.310Z,16.50
2019-04-21T00:30:58.109Z,17.13
2019-04-21T00:31:38.057Z,15.77
2019-04-21T00:32:25.428Z,17.50
2019-04-21T00:33:10.273Z,18.07
2019-04-21T00:33:50.141Z,18.20
2019-04-21T00:34:36.456Z,15.40
2019-04-21T00:35:26.001Z,15.37
2019-04-21T00:36:16.702Z,16.17
2019-04-21T00:37:12.316Z,16.27
2019-04-21T00:38:15.142Z,15.93
2019-04-21T00:39:07.112Z,17.17
2019-04-21T00:40:36.507Z,19.40
2019-04-21T00:41:26.386Z,19.50
2019-04-21T00:42:11.545Z,15.33
2019-04-21T00:42:55.646Z,17.40
2019-04-21T00:43:41.392Z,16.90
2019-04-21T00:44:27.431Z,17.10
2019-04-21T00:45:22.288Z,19.13
2019-04-21T00:46:02.223Z,16.23
2019-04-21T00:46:58.195Z,16.27
2019-04-21T00:47:46.324Z,16.57
2019-04-21T00:48:45.678Z,18.07
2019-04-21T00:49:23.336Z,16.23
2019-04-21T00:50:17.924Z,15.20
2019-04-21T00:51:25.009Z,16.17
2019-04-21T00:52:42.591Z,14.90
2019-04-21T00:53:22.203Z,15.43
2019-04-21T00:54:13.337Z,16.33
2019-04-21T00:55:07.744Z,14.73
2019-04-21T00:55:52.018Z,15.40
2019-04-21T00:56:41.327Z,16.10
2019-04-21T00:57:35.699Z,16.47
2019-04-21T00:58:19.505Z,15.73
2019-04-21T00:59:10.340Z,17.73
2019-04-21T00:59:54.360Z,14.60
2019-04-21T01:00:43.071Z,16.17
2019-04-21T01:01:25.271Z,16.43
2019-04-21T01:02:15.703Z,16.90
2019-04-21T01:03:08.967Z,17.83
2019-04-21T01:03:57.687Z,15.70
2019-04-21T01:04:42.854Z,16.20
2019-04-21T01:05:37.474Z,16.13
2019-04-21T01:06:22.360Z,15.47
2019-04-21T01:07:11.197Z,16.90
2019-04-21T01:07:50.732Z,18.70
2019-04-21T01:08:41.430Z,18.43
2019-04-21T01:09:29.054Z,16.97
2019-04-21T01:10:14.671Z,17.17
2019-04-21T01:11:01.829Z,17.20
2019-04-21T01:11:55.050Z,16.17
2019-04-21T01:12:53.590Z,16.57
2019-04-21T01:13:54.736Z,18.45
2019-04-21T01:14:29.747Z,15.93
2019-04-21T01:15:12.331Z,17.82
2019-04-21T01:16:00.787Z,17.80
2019-04-21T01:16:51.447Z,21.93
2019-04-21T01:17:38.227Z,15.67
2019-04-21T01:18:31.402Z,18.60
2019-04-21T01:19:14.321Z,21.80
2019-04-21T01:19:58.436Z,16.37
2019-04-21T01:20:27.881Z,16.07
2019-04-21T01:21:21.369Z,18.32
2019-04-21T01:22:08.320Z,16.47
2019-04-21T01:22:55.870Z,17.50
2019-04-21T01:23:42.350Z,15.77
2019-04-21T01:24:33.178Z,15.67
2019-04-21T01:25:27.412Z,17.33
2019-04-21T01:26:20.990Z,14.93
2019-04-21T01:27:04.809Z,15.10
2019-04-21T01:27:59.075Z,16.25
2019-04-21T01:28:52.466Z,16.23
2019-04-21T01:29:42.729Z,18.00
2019-04-21T01:30:28.581Z,15.50
2019-04-21T01:31:14.931Z,18.32
2019-04-21T01:32:12.811Z,16.62
2019-04-21T01:32:53.308Z,15.30
2019-04-21T01:33:45.027Z,16.07
2019-04-21T01:34:37.709Z,17.30
2019-04-21T01:35:14.720Z,16.03
2019-04-21T01:36:03.757Z,14.70
2019-04-21T01:36:51.422Z,15.72
2019-04-21T01:37:47.953Z,17.20
2019-04-21T01:38:34.212Z,17.33
2019-04-21T01:39:20.020Z,15.40
2019-04-21T01:40:16.577Z,15.15
2019-04-21T01:40:59.411Z,16.52
2019-04-21T01:41:47.840Z,16.05
2019-04-21T01:42:31.572Z,16.75
2019-04-21T01:43:20.524Z,16.45
2019-04-21T01:44:06.236Z,18.10
2019-04-21T01:44:58.542Z,17.00
2019-04-21T01:45:43.473Z,16.37
2019-04-21T01:46:30.935Z,16.00
2019-04-21T01:47:17.415Z,16.30
2019-04-21T01:48:06.548Z,15.03
2019-04-21T01:48:49.475Z,18.45
2019-04-21T01:49:34.583Z,14.80
2019-04-21T01:50:31.610Z,15.88
2019-04-21T01:51:18.955Z,15.23
2019-04-21T01:53:11.114Z,18.42
2019-04-21T01:54:04.054Z,15.80
2019-04-21T01:55:32.138Z,17.90
2019-04-21T01:56:44.851Z,17.85
2019-04-21T01:57:51.221Z,17.27
2019-04-21T01:58:36.574Z,15.30
2019-04-21T01:59:30.444Z,17.12
2019-04-21T02:00:21.269Z,15.03
2019-04-21T02:01:08.746Z,15.88
2019-04-21T02:02:06.451Z,15.40
2019-04-21T02:02:59.874Z,15.43
2019-04-21T02:03:52.948Z,15.08
2019-04-21T02:04:36.454Z,15.98
2019-04-21T02:05:26.920Z,16.35
2019-04-21T02:06:14.958Z,18.02
2019-04-21T02:06:57.367Z,17.55
2019-04-21T02:07:45.880Z,16.05
2019-04-21T02:08:28.777Z,15.50
2019-04-21T02:09:15.406Z,15.48
2019-04-21T02:10:11.235Z,16.27
2019-04-21T02:11:00.644Z,15.58
2019-04-21T02:11:43.249Z,18.50
2019-04-21T02:12:34.539Z,16.85
2019-04-21T02:13:18.787Z,18.20
2019-04-21T02:14:12.471Z,18.82
2019-04-21T02:15:08.013Z,17.35
2019-04-21T02:15:51.049Z,18.07
2019-04-21T02:16:34.584Z,18.57
2019-04-21T02:17:17.438Z,17.75
2019-04-21T02:18:06.073Z,15.83
2019-04-21T02:18:55.559Z,19.27
2019-04-21T02:19:35.921Z,15.58
2019-04-21T02:20:24.139Z,18.15
2019-04-21T02:21:16.716Z,15.78
2019-04-21T02:22:02.165Z,19.42
2019-04-21T02:23:12.997Z,17.52
2019-04-21T02:23:56.080Z,19.62
2019-04-21T02:24:42.316Z,17.32
2019-04-21T02:25:26.039Z,16.27
2019-04-21T02:26:21.255Z,21.35
2019-04-21T02:26:59.513Z,20.40
2019-04-21T02:27:50.213Z,16.02
2019-04-21T02:28:42.794Z,19.00
2019-04-21T02:29:26.671Z,17.25
2019-04-21T02:30:22.209Z,16.05
2019-04-21T02:32:01.802Z,16.60
2019-04-21T02:32:48.034Z,18.05
2019-04-21T02:33:51.105Z,20.17
2019-04-21T02:34:27.387Z,17.32
2019-04-21T02:36:18.925Z,17.80
2019-04-21T02:37:13.628Z,18.85
2019-04-21T02:40:03.946Z,19.85
2019-04-21T02:40:50.707Z,17.62
2019-04-21T02:41:43.710Z,18.42
2019-04-21T02:42:32.480Z,17.25
2019-04-21T02:43:19.062Z,17.70
2019-04-21T02:44:10.154Z,19.00
2019-04-21T02:44:52.088Z,18.12
2019-04-21T02:45:37.820Z,20.30
2019-04-21T02:46:35.371Z,19.10
2019-04-21T02:48:19.311Z,20.27
2019-04-21T02:48:55.475Z,17.77
2019-04-21T02:49:53.938Z,16.87
2019-04-21T02:50:33.522Z,19.37
2019-04-21T02:51:23.891Z,17.80
2019-04-21T02:52:11.683Z,17.52
2019-04-21T02:53:09.531Z,20.10
2019-04-21T02:54:48.268Z,17.27
2019-04-21T02:55:13.490Z,17.20
2019-04-21T02:56:07.818Z,21.10
2019-04-21T02:57:47.871Z,16.67
2019-04-21T02:58:42.083Z,18.77
2019-04-21T03:00:25.129Z,18.85
2019-04-21T03:02:52.581Z,19.60
2019-04-21T03:03:36.294Z,17.25
2019-04-21T03:08:56.717Z,20.08
2019-04-21T03:09:32.202Z,18.75
2019-04-21T03:10:26.254Z,18.15
2019-04-21T03:12:06.432Z,17.30
2019-04-21T03:12:39.183Z,18.05
2019-04-21T03:13:44.548Z,21.05
2019-04-21T03:14:28.345Z,19.00
2019-04-21T03:16:11.805Z,18.65
2019-04-21T03:16:46.975Z,18.98
2019-04-21T03:17:46.504Z,20.35
2019-04-21T03:18:26.527Z,21.97
2019-04-21T03:19:19.568Z,19.07
2019-04-21T03:20:42.144Z,17.50
2019-04-21T03:21:38.814Z,20.65
2019-04-21T03:22:31.604Z,20.37
2019-04-21T03:27:46.449Z,19.65
2019-04-21T03:30:44.912Z,20.82
2019-04-21T03:31:50.436Z,20.72
2019-04-21T03:34:57.412Z,22.15
2019-04-21T03:35:54.367Z,22.60
2019-04-21T03:37:40.173Z,21.05
2019-04-21T03:38:31.480Z,23.67
2019-04-21T03:39:13.744Z,21.73
2019-04-21T03:40:52.867Z,26.30
2019-04-21T03:41:52.567Z,20.40
2019-04-21T03:42:33.679Z,20.80
2019-04-21T03:43:23.162Z,22.73
2019-04-21T03:44:12.325Z,21.77
2019-04-21T03:44:59.492Z,23.35
2019-04-21T03:46:32.541Z,20.65
2019-04-21T03:47:26.884Z,21.55
2019-04-21T03:48:15.271Z,23.27
2019-04-21T03:49:02.273Z,22.50
2019-04-21T03:49:59.945Z,24.50
2019-04-21T03:54:49.109Z,27.20
2019-04-21T03:55:50.430Z,26.07
2019-04-21T03:56:45.424Z,22.87
2019-04-21T03:58:15.202Z,22.55
2019-04-21T03:58:54.164Z,23.00
2019-04-21T03:59:26.412Z,23.77
2019-04-21T04:00:36.617Z,24.98
2019-04-21T04:02:42.678Z,25.75
2019-04-21T04:04:37.183Z,26.00
2019-04-21T04:05:51.598Z,22.30
2019-04-21T04:07:11.041Z,24.70
2019-04-21T04:08:08.730Z,26.97
2019-04-21T04:09:52.739Z,27.37
2019-04-21T04:10:44.558Z,23.77
2019-04-21T04:12:12.549Z,24.92
2019-04-21T04:13:05.906Z,26.37
2019-04-21T04:13:56.388Z,24.23
2019-04-21T04:14:44.408Z,27.82
2019-04-21T04:15:36.754Z,26.20
2019-04-21T04:17:14.604Z,24.98
2019-04-21T04:17:54.660Z,25.50
2019-04-21T04:19:34.609Z,30.40
2019-04-21T04:20:22.515Z,24.32
2019-04-21T04:21:14.411Z,26.93
2019-04-21T04:22:48.177Z,25.27
2019-04-21T04:23:41.522Z,24.02
2019-04-21T04:25:15.478Z,28.05
2019-04-21T04:25:59.079Z,26.50
2019-04-21T04:27:46.993Z,23.73
2019-04-21T04:28:19.495Z,24.82
2019-04-21T04:29:18.326Z,27.62
2019-04-21T04:30:04.253Z,26.40
2019-04-21T04:30:45.306Z,23.57
2019-04-21T04:32:23.648Z,24.50
2019-04-21T04:33:12.343Z,25.95
2019-04-21T04:35:52.850Z,25.30
2019-04-21T04:36:33.391Z,25.75
2019-04-21T04:38:07.218Z,25.97
2019-04-21T04:39:26.363Z,25.27
2019-04-21T04:40:26.847Z,22.73
2019-04-21T04:41:22.201Z,24.67
2019-04-21T04:42:14.572Z,26.20
2019-04-21T04:43:08.635Z,25.37
2019-04-21T04:43:54.576Z,22.73
2019-04-21T04:44:50.077Z,25.72
2019-04-21T04:46:18.444Z,25.02
2019-04-21T04:47:52.959Z,22.80
2019-04-21T04:48:36.939Z,22.35
2019-04-21T04:49:39.627Z,24.27
2019-04-21T04:50:15.640Z,23.30
2019-04-21T04:51:12.314Z,22.05
2019-04-21T04:52:40.130Z,25.15
2019-04-21T04:53:31.051Z,23.42
2019-04-21T04:54:26.601Z,22.73
2019-04-21T04:55:01.912Z,23.52
2019-04-21T04:56:40.415Z,21.42
2019-04-21T04:58:56.405Z,22.60
2019-04-21T04:59:24.112Z,21.97
2019-04-21T05:00:03.485Z,23.62
2019-04-21T05:01:32.037Z,23.47
2019-04-21T05:02:27.965Z,24.20
2019-04-21T05:03:00.955Z,22.85
2019-04-21T05:04:05.863Z,23.07
2019-04-21T05:05:30.061Z,22.82
2019-04-21T05:07:13.887Z,22.22
2019-04-21T05:09:10.289Z,21.12
2019-04-21T05:09:42.736Z,23.18
2019-04-21T05:10:29.429Z,23.55
2019-04-21T05:12:01.962Z,25.27
2019-04-21T05:12:51.247Z,24.25
2019-04-21T05:13:44.679Z,21.57
2019-04-21T05:14:48.229Z,21.82
2019-04-21T05:15:12.765Z,22.30
2019-04-21T05:16:21.762Z,23.67
2019-04-21T05:17:55.378Z,23.35
2019-04-21T05:18:40.864Z,23.20
2019-04-21T05:19:16.138Z,23.85
2019-04-21T05:20:08.917Z,21.90
2019-04-21T05:20:57.482Z,24.23
2019-04-21T05:22:15.611Z,21.77
2019-04-21T05:22:30.995Z,25.65
2019-04-21T05:23:06.333Z,22.35
2019-04-21T05:24:08.113Z,22.73
2019-04-21T05:24:37.956Z,22.32
2019-04-21T05:25:28.974Z,22.80
2019-04-21T05:26:14.655Z,23.70
2019-04-21T05:27:07.481Z,23.50
2019-04-21T05:27:56.385Z,21.55
2019-04-21T05:28:40.681Z,20.30
2019-04-21T05:29:56.783Z,20.97
2019-04-21T05:30:50.204Z,21.30
2019-04-21T05:32:59.979Z,25.52
2019-04-21T05:33:59.087Z,21.95
2019-04-21T05:34:53.326Z,22.07
2019-04-21T05:36:04.094Z,21.77
2019-04-21T05:37:01.440Z,22.50
2019-04-21T05:38:00.144Z,19.77
2019-04-21T05:39:18.389Z,20.02
2019-04-21T05:40:12.229Z,22.40
2019-04-21T05:40:59.087Z,22.48
2019-04-21T05:41:41.405Z,23.18
2019-04-21T05:42:35.243Z,20.20
2019-04-21T05:43:30.894Z,21.12
2019-04-21T05:44:21.341Z,22.67
2019-04-21T05:45:14.744Z,22.10
2019-04-21T05:46:01.131Z,20.60
2019-04-21T05:46:50.654Z,23.45
2019-04-21T05:47:39.632Z,22.73
2019-04-21T05:48:48.422Z,22.22
2019-04-21T05:49:35.420Z,22.77
2019-04-21T05:50:21.935Z,20.80
2019-04-21T05:51:08.993Z,25.37
2019-04-21T05:51:59.718Z,20.95
2019-04-21T05:52:51.608Z,20.17
2019-04-21T05:53:41.233Z,20.82
2019-04-21T05:54:39.063Z,19.50
2019-04-21T05:55:24.469Z,25.32
2019-04-21T05:56:09.920Z,21.37
2019-04-21T05:56:59.863Z,19.05
2019-04-21T05:57:49.005Z,21.77
2019-04-21T05:58:31.700Z,19.37
2019-04-21T05:59:20.113Z,22.22
2019-04-21T06:00:21.358Z,20.82
2019-04-21T06:02:02.144Z,23.47
2019-04-21T06:02:43.755Z,20.75
2019-04-21T06:04:26.212Z,21.12
2019-04-21T06:05:21.556Z,22.62
2019-04-21T06:06:55.444Z,18.87
2019-04-21T06:07:34.243Z,20.80
2019-04-21T06:08:17.934Z,19.80
2019-04-21T06:09:13.011Z,19.17
2019-04-21T06:09:59.678Z,21.40
2019-04-21T06:11:36.269Z,19.45
2019-04-21T06:12:29.817Z,19.23
2019-04-21T06:13:20.667Z,23.22
2019-04-21T06:14:02.505Z,20.48
2019-04-21T06:14:54.110Z,17.85
2019-04-21T06:15:42.920Z,18.32
2019-04-21T06:16:32.408Z,19.32
2019-04-21T06:17:19.778Z,21.93
2019-04-21T06:18:04.378Z,20.15
2019-04-21T06:18:53.095Z,21.23
2019-04-21T06:19:43.459Z,19.42
2019-04-21T06:20:30.733Z,17.87
2019-04-21T06:21:15.912Z,19.27
2019-04-21T06:22:06.054Z,18.92
2019-04-21T06:22:53.244Z,18.07
2019-04-21T06:23:43.567Z,17.92
2019-04-21T06:24:39.033Z,23.83
2019-04-21T06:26:44.769Z,19.00
2019-04-21T06:27:44.616Z,20.80
2019-04-21T06:28:38.756Z,19.80
2019-04-21T06:29:24.017Z,18.90
2019-04-21T06:30:03.416Z,20.90
2019-04-21T06:31:08.185Z,17.90
2019-04-21T06:32:46.706Z,18.35
2019-04-21T06:33:21.405Z,19.67
2019-04-21T06:34:10.657Z,17.75
2019-04-21T06:35:12.482Z,19.30
2019-04-21T06:36:24.019Z,21.43
2019-04-21T06:37:32.673Z,20.88
2019-04-21T06:37:49.155Z,17.90
2019-04-21T06:39:01.765Z,18.10
2019-04-21T06:39:48.215Z,18.17
2019-04-21T06:40:30.744Z,23.40
2019-04-21T06:41:24.517Z,23.73
2019-04-21T06:42:00.597Z,16.80
2019-04-21T06:42:50.980Z,19.32
2019-04-21T06:43:40.397Z,17.27
2019-04-21T06:44:22.437Z,18.53
2019-04-21T06:45:25.415Z,17.23
2019-04-21T06:46:11.678Z,18.70
2019-04-21T06:46:58.997Z,18.60
2019-04-21T06:48:37.404Z,15.83
2019-04-21T06:49:17.349Z,17.37
2019-04-21T06:50:03.195Z,17.90
2019-04-21T06:50:52.814Z,19.30
2019-04-21T06:51:38.936Z,17.20
2019-04-21T06:53:20.758Z,16.80
2019-04-21T06:54:09.224Z,18.90
2019-04-21T06:55:03.137Z,18.77
2019-04-21T06:55:43.564Z,18.07
2019-04-21T06:56:38.048Z,16.83
2019-04-21T06:57:21.883Z,16.60
2019-04-21T06:58:10.236Z,18.23
2019-04-21T06:58:57.713Z,16.73
2019-04-21T06:59:43.595Z,15.97
2019-04-21T07:00:30.552Z,16.20
2019-04-21T07:01:26.594Z,16.77
2019-04-21T07:03:11.056Z,15.77
2019-04-21T07:03:48.628Z,16.30
2019-04-21T07:04:36.713Z,16.03
2019-04-21T07:05:26.451Z,16.93
2019-04-21T07:06:12.670Z,16.73
2019-04-21T07:06:59.257Z,18.47
2019-04-21T07:08:06.441Z,17.23
2019-04-21T07:09:27.197Z,15.73
2019-04-21T07:10:14.339Z,16.70
2019-04-21T07:11:02.327Z,17.23
2019-04-21T07:11:49.112Z,17.63
2019-04-21T07:12:33.654Z,18.47
2019-04-21T07:13:22.236Z,16.73
2019-04-21T07:14:27.339Z,20.63
2019-04-21T07:15:19.286Z,22.77
2019-04-21T07:15:53.561Z,19.67
2019-04-21T07:16:46.341Z,18.27
2019-04-21T07:17:28.178Z,19.30
2019-04-21T07:18:25.318Z,16.17
2019-04-21T07:19:14.617Z,16.77
2019-04-21T07:19:55.869Z,16.40
2019-04-21T07:20:44.918Z,16.17
2019-04-21T07:23:39.840Z,17.50
2019-04-21T07:24:29.118Z,15.43
2019-04-21T07:25:18.939Z,16.87
2019-04-21T07:26:03.172Z,17.20
2019-04-21T07:27:41.537Z,16.00
2019-04-21T07:28:33.624Z,16.95
2019-04-21T07:29:25.887Z,17.35
2019-04-21T07:30:26.618Z,17.67
2019-04-21T07:31:00.555Z,17.40
2019-04-21T07:31:55.503Z,16.97
2019-04-21T07:32:33.746Z,16.87
2019-04-21T07:34:19.735Z,16.62
2019-04-21T07:35:04.163Z,17.07
2019-04-21T07:35:51.705Z,16.48
2019-04-21T07:36:45.030Z,17.57
2019-04-21T07:37:30.525Z,16.75
2019-04-21T07:38:16.764Z,16.55
2019-04-21T07:39:03.362Z,15.48
2019-04-21T07:39:49.415Z,17.48
2019-04-21T07:40:34.943Z,15.75
2019-04-21T07:41:25.146Z,15.88
2019-04-21T07:42:13.382Z,18.65
2019-04-21T07:43:03.954Z,15.08
2019-04-21T07:43:55.360Z,16.45
2019-04-21T07:44:46.374Z,15.72
2019-04-21T07:45:36.477Z,16.65
2019-04-21T07:46:22.560Z,15.75
2019-04-21T07:47:20.185Z,15.58
2019-04-21T07:48:14.320Z,15.32
2019-04-21T07:49:07.934Z,16.25
2019-04-21T07:50:00.663Z,15.80
2019-04-21T07:51:25.375Z,15.63
2019-04-21T07:52:30.107Z,16.23
2019-04-21T07:53:32.287Z,16.95
2019-04-21T07:54:20.129Z,15.48
2019-04-21T07:55:16.733Z,15.32
2019-04-21T07:56:20.274Z,15.95
2019-04-21T07:57:19.056Z,16.32
2019-04-21T07:58:14.975Z,16.77
2019-04-21T07:59:06.949Z,16.62
2019-04-21T08:01:30.759Z,16.12
2019-04-21T08:02:28.166Z,16.95
2019-04-21T08:03:09.205Z,15.08
2019-04-21T08:04:05.752Z,17.32
2019-04-21T08:05:09.579Z,16.27
2019-04-21T08:05:37.584Z,17.00
2019-04-21T08:06:28.382Z,16.00
2019-04-21T08:07:24.452Z,16.82
2019-04-21T08:07:59.740Z,16.35
2019-04-21T08:08:54.489Z,16.93
2019-04-21T08:09:41.051Z,16.50
2019-04-21T08:10:26.184Z,15.58
2019-04-21T08:11:22.452Z,16.07
2019-04-21T08:12:04.329Z,15.85
2019-04-21T08:12:54.246Z,15.60
2019-04-21T08:14:03.563Z,16.62
2019-04-21T08:14:43.920Z,16.67
2019-04-21T08:15:29.093Z,15.98
2019-04-21T08:16:17.247Z,15.45
2019-04-21T08:17:04.522Z,17.20
2019-04-21T08:17:57.101Z,16.37
2019-04-21T08:19:32.469Z,15.83
2019-04-21T08:20:18.670Z,15.30
2019-04-21T08:21:07.175Z,15.05
2019-04-21T08:22:08.245Z,15.83
2019-04-21T08:23:37.136Z,15.60
2019-04-21T08:24:25.407Z,16.42
2019-04-21T08:25:14.879Z,16.90
2019-04-21T08:26:17.420Z,16.25
2019-04-21T08:27:10.998Z,16.17
2019-04-21T08:27:57.001Z,17.37
2019-04-21T08:28:50.974Z,17.40
2019-04-21T08:29:33.221Z,17.35
2019-04-21T08:30:22.660Z,16.20
2019-04-21T08:31:09.871Z,16.73
2019-04-21T08:32:05.857Z,16.17
2019-04-21T08:32:56.513Z,17.87
2019-04-21T08:33:38.758Z,17.70
2019-04-21T08:35:34.337Z,17.87
2019-04-21T08:36:11.238Z,17.48
2019-04-21T08:36:46.264Z,16.85
2019-04-21T08:37:32.144Z,16.20
2019-04-21T08:38:20.904Z,18.00
2019-04-21T08:39:13.159Z,16.30
2019-04-21T08:40:19.309Z,17.67
2019-04-21T08:40:49.244Z,17.30
2019-04-21T08:41:36.250Z,16.95
2019-04-21T08:44:23.191Z,16.02
2019-04-21T08:45:11.094Z,15.55
2019-04-21T08:46:13.049Z,15.53
2019-04-21T08:46:49.081Z,18.02
2019-04-21T08:47:36.527Z,16.97
2019-04-21T08:48:22.787Z,17.12
2019-04-21T08:49:09.341Z,17.70
2019-04-21T08:50:03.522Z,15.88
2019-04-21T08:51:02.096Z,15.13
2019-04-21T08:51:54.918Z,16.12
2019-04-21T08:52:42.523Z,16.20
2019-04-21T08:53:21.618Z,16.57
2019-04-21T08:54:05.605Z,16.97
2019-04-21T08:54:51.491Z,17.65
2019-04-21T08:56:04.370Z,15.60
2019-04-21T08:56:52.890Z,16.55
2019-04-21T08:58:08.179Z,19.57
2019-04-21T08:58:59.175Z,15.85
2019-04-21T09:00:08.796Z,15.63
2019-04-21T09:01:02.392Z,16.57
2019-04-21T09:01:55.467Z,16.87
2019-04-21T09:03:06.442Z,17.17
2019-04-21T09:04:47.998Z,16.35
2019-04-21T09:05:29.561Z,15.90
2019-04-21T09:06:40.281Z,16.73
2019-04-21T09:07:16.221Z,15.78
2019-04-21T09:08:00.324Z,15.60
2019-04-21T09:08:55.101Z,15.83
2019-04-21T09:09:35.255Z,15.83
2019-04-21T09:10:22.308Z,14.65
2019-04-21T09:11:11.501Z,15.50
2019-04-21T09:11:58.993Z,15.10
2019-04-21T09:12:46.652Z,14.33
2019-04-21T09:13:37.173Z,14.18
2019-04-21T09:14:24.175Z,14.53
2019-04-21T09:15:14.468Z,14.60
2019-04-21T09:15:59.563Z,14.20
2019-04-21T09:16:47.555Z,14.78
2019-04-21T09:17:32.848Z,14.50
2019-04-21T09:18:25.430Z,14.58
2019-04-21T09:19:21.498Z,15.32
2019-04-21T09:20:52.129Z,14.28
2019-04-21T09:22:25.123Z,14.83
2019-04-21T09:23:18.084Z,13.80
2019-04-21T09:24:04.577Z,13.60
2019-04-21T09:24:53.596Z,13.75
2019-04-21T09:25:48.321Z,13.08
2019-04-21T09:26:43.479Z,14.85
2019-04-21T09:27:14.279Z,14.50
2019-04-21T09:28:03.957Z,14.98
2019-04-21T09:28:48.197Z,14.30
2019-04-21T09:29:32.533Z,14.07
2019-04-21T09:30:10.881Z,14.07
2019-04-21T09:31:04.223Z,13.53
2019-04-21T09:31:49.450Z,15.55
2019-04-21T09:32:38.501Z,15.60
2019-04-21T09:33:35.699Z,15.03
2019-04-21T09:34:22.689Z,14.80
2019-04-21T09:35:07.278Z,14.25
2019-04-21T09:35:56.359Z,14.05
2019-04-21T09:36:46.719Z,13.80
2019-04-21T09:37:40.706Z,13.18
2019-04-21T09:38:27.623Z,13.83
2019-04-21T09:39:15.132Z,13.32
2019-04-21T09:39:59.516Z,14.25
2019-04-21T09:40:49.747Z,13.68
2019-04-21T09:41:38.220Z,12.93
2019-04-21T09:42:32.293Z,12.53
2019-04-21T09:43:13.794Z,12.98
2019-04-21T09:44:01.649Z,12.25
2019-04-21T09:44:52.257Z,12.80
2019-04-21T09:45:37.705Z,15.03
2019-04-21T09:46:25.454Z,13.08
2019-04-21T09:47:12.931Z,11.78
2019-04-21T09:48:08.017Z,12.40
2019-04-21T09:48:58.269Z,13.40
2019-04-21T09:49:39.541Z,12.18
2019-04-21T09:50:26.502Z,12.10
2019-04-21T09:51:13.066Z,12.98
2019-04-21T09:51:59.960Z,12.25
2019-04-21T09:52:53.201Z,12.58
2019-04-21T09:53:37.729Z,12.95
2019-04-21T09:54:28.096Z,13.18
2019-04-21T09:55:15.960Z,13.80
2019-04-21T09:56:03.378Z,13.28
2019-04-21T09:56:54.940Z,12.43
2019-04-21T09:57:43.381Z,12.20
2019-04-21T09:58:32.416Z,13.18
2019-04-21T09:59:20.815Z,13.55
2019-04-21T10:00:06.795Z,13.22
2019-04-21T10:01:02.463Z,14.25
2019-04-21T10:01:49.064Z,14.47
2019-04-21T10:02:34.210Z,14.35
2019-04-21T10:03:15.725Z,13.25
2019-04-21T10:04:04.324Z,13.75
2019-04-21T10:04:50.150Z,13.58
2019-04-21T10:05:38.261Z,12.28
2019-04-21T10:06:26.061Z,13.10
2019-04-21T10:07:23.716Z,13.20
2019-04-21T10:08:01.290Z,13.08
2019-04-21T10:08:50.358Z,13.58
2019-04-21T10:09:35.740Z,15.15
2019-04-21T10:10:23.103Z,13.80
2019-04-21T10:11:09.915Z,14.18
2019-04-21T10:11:57.034Z,13.60
2019-04-21T10:12:43.426Z,12.73
2019-04-21T10:13:29.707Z,13.38
2019-04-21T10:14:17.672Z,13.05
2019-04-21T10:15:06.199Z,13.78
2019-04-21T10:16:17.916Z,13.22
2019-04-21T10:17:22.253Z,12.35
2019-04-21T10:18:13.080Z,13.15
2019-04-21T10:18:59.732Z,14.90
2019-04-21T10:19:46.389Z,13.18
2019-04-21T10:20:32.901Z,11.90
2019-04-21T10:21:19.768Z,14.10
2019-04-21T10:22:06.055Z,13.45
2019-04-21T10:22:53.086Z,13.43
2019-04-21T10:23:39.479Z,12.58
2019-04-21T10:24:26.404Z,13.25
2019-04-21T10:25:14.430Z,13.55
2019-04-21T10:26:02.488Z,13.22
2019-04-21T10:26:49.360Z,14.05
2019-04-21T10:27:36.862Z,13.08
2019-04-21T10:28:25.124Z,13.15
2019-04-21T10:29:19.747Z,13.78
2019-04-21T10:29:59.625Z,13.05
2019-04-21T10:30:46.855Z,13.70
2019-04-21T10:31:34.545Z,12.93
2019-04-21T10:32:23.508Z,12.70
2019-04-21T10:33:10.383Z,12.18
2019-04-21T10:33:56.797Z,12.90
2019-04-21T10:34:43.412Z,12.98
2019-04-21T10:35:30.952Z,14.38
2019-04-21T10:36:17.182Z,13.28
2019-04-21T10:37:03.432Z,12.88
2019-04-21T10:38:01.243Z,13.35
2019-04-21T10:38:43.190Z,12.20
2019-04-21T10:39:27.368Z,13.60
2019-04-21T10:40:15.733Z,13.35
2019-04-21T10:41:03.540Z,12.63
2019-04-21T10:41:51.161Z,11.90
2019-04-21T10:42:37.884Z,11.63
2019-04-21T10:43:25.636Z,12.33
2019-04-21T10:44:13.552Z,11.10
2019-04-21T10:45:00.999Z,11.18
2019-04-21T10:45:48.704Z,10.50
2019-04-21T10:46:35.048Z,11.05
2019-04-21T10:47:22.694Z,11.97
2019-04-21T10:48:10.682Z,9.95
2019-04-21T10:48:57.320Z,12.45
2019-04-21T10:49:44.569Z,11.48
2019-04-21T10:50:31.450Z,11.88
2019-04-21T10:51:18.952Z,12.45
2019-04-21T10:52:11.068Z,11.63
2019-04-21T10:53:04.933Z,11.93
2019-04-21T10:53:52.849Z,12.15
2019-04-21T10:55:05.589Z,11.35
2019-04-21T10:55:44.632Z,10.95
2019-04-21T10:56:25.130Z,11.35
2019-04-21T10:57:08.455Z,10.93
2019-04-21T10:58:20.337Z,10.90
2019-04-21T10:59:07.932Z,10.50
2019-04-21T10:59:56.113Z,10.98
2019-04-21T11:00:44.004Z,11.18
2019-04-21T11:01:31.428Z,11.95
2019-04-21T11:02:26.279Z,10.48
2019-04-21T11:03:38.260Z,10.00
2019-04-21T11:04:33.740Z,9.65
2019-04-21T11:05:16.739Z,10.60
2019-04-21T11:06:03.485Z,10.08
2019-04-21T11:06:50.597Z,9.70
2019-04-21T11:08:07.736Z,8.98
2019-04-21T11:08:45.721Z,11.63
2019-04-21T11:09:30.172Z,11.08
2019-04-21T11:10:16.295Z,10.73
2019-04-21T11:11:03.621Z,11.47
2019-04-21T11:11:51.766Z,12.53
2019-04-21T11:12:39.758Z,10.20
2019-04-21T11:13:26.460Z,9.83
2019-04-21T11:14:13.433Z,10.23
2019-04-21T11:15:01.070Z,9.60
2019-04-21T11:15:47.589Z,10.10
2019-04-21T11:16:42.779Z,9.50
2019-04-21T11:17:28.098Z,10.50
2019-04-21T11:18:15.596Z,10.13
2019-04-21T11:19:02.087Z,10.77
2019-04-21T11:19:50.664Z,10.20
2019-04-21T11:20:37.714Z,9.33
2019-04-21T11:21:24.959Z,9.70
2019-04-21T11:22:12.657Z,10.60
2019-04-21T11:22:59.650Z,9.90
2019-04-21T11:23:46.343Z,13.13
2019-04-21T11:24:33.265Z,11.17
2019-04-21T11:25:20.061Z,10.40
2019-04-21T11:26:06.768Z,9.90
2019-04-21T11:26:53.814Z,10.50
2019-04-21T11:27:40.789Z,9.53
2019-04-21T11:28:27.358Z,8.50
2019-04-21T11:29:14.867Z,9.38
2019-04-21T11:30:02.362Z,9.83
2019-04-21T11:30:48.775Z,11.03
2019-04-21T11:31:35.198Z,10.23
2019-04-21T11:32:21.287Z,10.20
2019-04-21T11:33:08.971Z,10.03
2019-04-21T11:33:55.458Z,10.33
2019-04-21T11:34:43.043Z,11.70
2019-04-21T11:35:29.407Z,11.27
2019-04-21T11:36:15.715Z,9.90
2019-04-21T11:37:03.912Z,9.87
2019-04-21T11:37:50.300Z,11.17
2019-04-21T11:39:07.547Z,12.83
2019-04-21T11:39:48.490Z,13.60
2019-04-21T11:40:27.683Z,22.80
2019-04-21T11:41:14.039Z,16.73
2019-04-21T11:42:03.651Z,13.87
2019-04-21T11:42:51.451Z,12.17
2019-04-21T11:43:39.151Z,10.67
2019-04-21T11:44:26.903Z,19.20
2019-04-21T11:45:26.328Z,12.13
2019-04-21T11:46:12.822Z,10.25
2019-04-21T11:46:58.852Z,10.80
2019-04-21T11:48:03.976Z,10.47
2019-04-21T11:48:50.534Z,10.70
2019-04-21T11:49:37.045Z,9.33
2019-04-21T11:50:23.311Z,9.87
2019-04-21T11:51:10.928Z,9.57
2019-04-21T11:51:58.617Z,9.53
2019-04-21T11:52:45.330Z,9.87
2019-04-21T11:53:32.820Z,8.90
2019-04-21T11:54:19.498Z,9.63
2019-04-21T11:55:08.869Z,10.23
2019-04-21T11:55:56.947Z,9.37